Time;durP1;ratioP1;P1;durP2;ratioP2;P2;SDS_P1;SDS_P2;PMS_P1;PMS_P2;Temp;Humidity;BMP_temperature;BMP_pressure;BME280_temperature;BME280_humidity;BME280_pressure;Samples;Min_cycle;Max_cycle;Signal;HPM_P1;HPM_P2
2021/06/18 00:00:08;;;;;;;9.10;8.40;;;23.90;99.90;;;;;;5071624;28;20481;-67
2021/06/18 00:02:39;;;;;;;10.43;9.23;;;23.80;99.90;;;;;;5071746;28;20536;-66
2021/06/18 00:05:08;;;;;;;10.47;9.20;;;23.70;99.90;;;;;;5071856;28;20426;-68
2021/06/18 00:07:36;;;;;;;10.73;9.83;;;23.60;99.90;;;;;;5071687;28;20427;-68
2021/06/18 00:10:06;;;;;;;10.37;9.40;;;23.60;99.90;;;;;;5071796;28;20507;-67
2021/06/18 00:12:35;;;;;;;9.23;8.47;;;23.50;99.90;;;;;;5071974;28;20433;-69
2021/06/18 00:15:05;;;;;;;10.20;8.73;;;23.50;99.90;;;;;;5070555;28;20473;-68
2021/06/18 00:17:33;;;;;;;10.60;9.70;;;23.50;99.90;;;;;;5070833;28;20479;-68
2021/06/18 00:20:04;;;;;;;10.63;9.73;;;23.50;99.90;;;;;;5051705;28;20452;-66
2021/06/18 00:22:33;;;;;;;10.40;9.30;;;23.50;99.90;;;;;;5071127;28;20515;-68
2021/06/18 00:25:01;;;;;;;10.80;9.83;;;23.50;99.90;;;;;;5071389;28;20528;-67
2021/06/18 00:27:29;;;;;;;9.50;8.70;;;23.40;99.90;;;;;;5069151;28;20415;-67
2021/06/18 00:29:58;;;;;;;11.07;10.10;;;23.40;99.90;;;;;;5070900;28;20438;-66
2021/06/18 00:32:26;;;;;;;10.03;9.23;;;23.40;99.90;;;;;;5071029;28;20802;-67
2021/06/18 00:34:54;;;;;;;10.93;10.03;;;23.50;99.90;;;;;;5070889;28;20462;-67
2021/06/18 00:37:24;;;;;;;11.10;10.10;;;23.40;99.90;;;;;;5070870;28;20422;-67
2021/06/18 00:39:52;;;;;;;10.13;9.27;;;23.40;99.90;;;;;;5070955;28;20438;-67
2021/06/18 00:42:20;;;;;;;11.23;10.23;;;23.40;99.90;;;;;;5070740;28;20414;-67
2021/06/18 00:44:48;;;;;;;11.23;10.17;;;23.30;99.90;;;;;;5070963;28;20497;-68
2021/06/18 00:47:20;;;;;;;10.23;9.43;;;23.20;99.90;;;;;;5071020;28;20509;-67
2021/06/18 00:49:51;;;;;;;10.60;9.60;;;23.20;99.90;;;;;;5070818;28;20446;-67
2021/06/18 00:52:20;;;;;;;12.10;10.80;;;23.20;99.90;;;;;;5070545;28;20426;-67
2021/06/18 00:54:50;;;;;;;10.50;9.50;;;23.10;99.90;;;;;;5070309;28;20485;-66
2021/06/18 00:57:18;;;;;;;10.60;9.70;;;23.10;99.90;;;;;;5070226;28;20422;-68
2021/06/18 00:59:47;;;;;;;11.43;10.33;;;23.20;99.90;;;;;;5052507;28;20846;-67
2021/06/18 01:02:15;;;;;;;12.27;11.27;;;23.20;99.90;;;;;;5069949;28;20958;-67
2021/06/18 01:04:43;;;;;;;10.97;9.97;;;23.10;99.90;;;;;;5070397;28;20489;-67
2021/06/18 01:07:16;;;;;;;11.00;10.07;;;23.10;99.90;;;;;;5070399;28;20430;-69
2021/06/18 01:10:09;;;;;;;11.17;10.17;;;23.10;99.90;;;;;;5069244;28;20442;-68
2021/06/18 01:12:43;;;;;;;12.03;11.00;;;23.10;99.90;;;;;;5069896;28;20480;-69
2021/06/18 01:15:16;;;;;;;12.47;10.93;;;22.90;99.90;;;;;;5070485;28;21052;-67
2021/06/18 01:17:51;;;;;;;11.23;10.13;;;22.90;99.90;;;;;;5070279;28;20505;-70
2021/06/18 01:20:46;;;;;;;11.70;10.80;;;22.80;99.90;;;;;;5069357;28;20438;-67
2021/06/18 01:23:26;;;;;;;11.20;10.33;;;22.80;99.90;;;;;;5040478;28;20634;-66
2021/06/18 01:26:03;;;;;;;10.77;9.83;;;22.70;99.90;;;;;;5071254;28;20517;-66
2021/06/18 01:28:42;;;;;;;10.97;10.00;;;22.60;99.90;;;;;;5053896;28;20442;-67
2021/06/18 01:31:13;;;;;;;11.70;10.67;;;22.60;99.90;;;;;;5071627;28;20481;-65
2021/06/18 01:33:44;;;;;;;11.17;10.20;;;22.50;99.90;;;;;;5069771;28;20793;-66
2021/06/18 01:36:15;;;;;;;10.90;9.90;;;22.50;99.90;;;;;;5068512;28;20421;-67
2021/06/18 01:38:47;;;;;;;11.70;10.50;;;22.50;99.90;;;;;;5068395;28;20422;-66
2021/06/18 01:41:21;;;;;;;12.37;11.27;;;22.50;99.90;;;;;;5068748;28;20442;-67
2021/06/18 01:43:52;;;;;;;13.13;11.80;;;22.50;99.90;;;;;;5054334;28;20423;-68
2021/06/18 01:46:24;;;;;;;12.60;11.50;;;22.50;99.90;;;;;;5073462;28;20472;-68
2021/06/18 01:48:57;;;;;;;12.77;11.53;;;22.60;99.90;;;;;;5071775;28;20433;-69
2021/06/18 01:51:27;;;;;;;11.87;10.53;;;22.60;99.90;;;;;;5070911;28;20964;-67
2021/06/18 01:53:58;;;;;;;13.20;12.10;;;22.60;99.90;;;;;;5070754;28;20466;-67
2021/06/18 01:56:28;;;;;;;12.50;11.20;;;22.50;99.90;;;;;;5070525;28;20505;-67
2021/06/18 01:59:01;;;;;;;13.20;12.07;;;22.50;99.90;;;;;;5069247;28;20994;-68
2021/06/18 02:01:33;;;;;;;12.90;11.90;;;22.50;99.90;;;;;;5069209;28;20446;-68
2021/06/18 02:04:03;;;;;;;12.50;11.60;;;22.40;99.90;;;;;;5069310;28;20415;-66
2021/06/18 02:06:33;;;;;;;12.63;11.43;;;22.40;99.90;;;;;;5069556;28;20863;-66
2021/06/18 02:09:04;;;;;;;13.77;12.40;;;22.40;99.90;;;;;;5069358;28;20426;-65
2021/06/18 02:11:35;;;;;;;13.13;11.93;;;22.30;99.90;;;;;;5067792;28;20461;-65
2021/06/18 02:14:09;;;;;;;12.13;11.20;;;22.30;99.90;;;;;;5067479;28;20959;-66
2021/06/18 02:16:40;;;;;;;13.30;12.20;;;22.20;99.90;;;;;;5067585;28;20427;-68
2021/06/18 02:19:09;;;;;;;13.30;12.07;;;22.20;99.90;;;;;;5068592;28;20862;-67
2021/06/18 02:21:39;;;;;;;13.77;12.57;;;22.10;99.90;;;;;;5068544;28;20464;-68
2021/06/18 02:24:09;;;;;;;13.07;11.73;;;22.10;99.90;;;;;;5068384;28;20427;-67
2021/06/18 02:26:38;;;;;;;13.27;11.93;;;22.10;99.90;;;;;;5069521;28;20460;-65
2021/06/18 02:29:08;;;;;;;13.47;12.37;;;22.10;99.90;;;;;;5069156;28;20426;-66
2021/06/18 02:31:39;;;;;;;13.80;12.50;;;22.00;99.90;;;;;;5067762;28;20409;-68
2021/06/18 02:34:08;;;;;;;12.57;11.37;;;22.00;99.90;;;;;;5067500;28;20422;-66
2021/06/18 02:36:38;;;;;;;12.47;11.27;;;22.00;99.90;;;;;;5067577;28;20422;-68
2021/06/18 02:39:06;;;;;;;13.27;12.20;;;21.90;99.90;;;;;;5067032;28;20422;-66
2021/06/18 02:41:35;;;;;;;13.30;12.10;;;21.90;99.90;;;;;;5068700;28;20445;-66
2021/06/18 02:44:04;;;;;;;12.73;11.53;;;21.80;99.90;;;;;;5068432;28;20401;-66
2021/06/18 02:46:40;;;;;;;12.03;11.00;;;21.70;99.90;;;;;;5069173;28;20467;-69
2021/06/18 02:49:13;;;;;;;12.00;11.00;;;21.70;99.90;;;;;;5049873;28;20397;-66
2021/06/18 02:51:44;;;;;;;13.60;12.40;;;21.60;99.90;;;;;;5076610;28;20427;-68
2021/06/18 02:54:20;;;;;;;14.27;12.80;;;21.60;99.90;;;;;;5075268;28;20423;-67
2021/06/18 02:56:52;;;;;;;13.80;12.57;;;21.70;99.90;;;;;;5075952;28;20448;-68
2021/06/18 02:59:26;;;;;;;12.43;11.40;;;21.70;99.90;;;;;;5077995;28;20418;-68
2021/06/18 03:01:58;;;;;;;13.40;12.17;;;21.70;99.90;;;;;;5076736;28;20424;-69
2021/06/18 03:04:30;;;;;;;13.77;12.60;;;21.70;99.90;;;;;;5075107;28;20831;-68
2021/06/18 03:07:03;;;;;;;12.57;11.57;;;21.70;99.90;;;;;;5072979;28;20422;-68
2021/06/18 03:09:33;;;;;;;12.93;11.80;;;21.70;99.90;;;;;;5069106;28;20401;-67
2021/06/18 03:12:02;;;;;;;11.20;10.20;;;21.70;99.90;;;;;;5068625;28;20924;-68
2021/06/18 03:14:35;;;;;;;12.40;11.37;;;21.80;99.90;;;;;;5067442;28;20435;-67
2021/06/18 03:17:09;;;;;;;12.83;11.63;;;21.80;99.90;;;;;;5070356;28;20762;-67
2021/06/18 03:19:42;;;;;;;12.60;11.50;;;21.90;99.90;;;;;;5069936;28;20443;-66
2021/06/18 03:22:12;;;;;;;13.87;12.53;;;21.90;99.90;;;;;;5068557;28;20445;-67
2021/06/18 03:24:41;;;;;;;13.43;12.13;;;22.00;99.90;;;;;;5068606;28;20500;-67
2021/06/18 03:27:11;;;;;;;13.27;12.27;;;22.00;99.90;;;;;;5068403;28;20467;-68
2021/06/18 03:29:40;;;;;;;13.57;12.37;;;22.10;99.90;;;;;;5068268;28;20504;-68
2021/06/18 03:32:11;;;;;;;13.23;12.10;;;22.10;99.90;;;;;;5068547;28;20529;-68
2021/06/18 03:34:40;;;;;;;13.87;12.43;;;22.20;99.90;;;;;;5068473;28;20412;-68
2021/06/18 03:37:09;;;;;;;13.03;11.73;;;22.30;99.90;;;;;;5069050;28;20422;-67
2021/06/18 03:39:37;;;;;;;14.90;13.47;;;22.50;99.90;;;;;;5068332;28;20503;-67
2021/06/18 03:42:07;;;;;;;14.50;13.00;;;23.40;99.90;;;;;;5070921;28;20929;-72
2021/06/18 03:44:38;;;;;;;13.43;11.53;;;24.70;99.90;;;;;;5068296;28;20408;-68
2021/06/18 03:47:09;;;;;;;12.37;11.47;;;26.20;99.90;;;;;;5072913;28;20422;-70
2021/06/18 03:49:39;;;;;;;14.03;12.93;;;27.20;99.90;;;;;;5071757;28;21023;-66
2021/06/18 03:52:07;;;;;;;12.37;11.33;;;28.20;99.90;;;;;;5074766;28;20426;-68
2021/06/18 03:54:35;;;;;;;12.50;11.30;;;29.00;99.90;;;;;;5072312;28;21105;-66
2021/06/18 03:57:06;;;;;;;12.97;11.93;;;29.70;99.90;;;;;;5071763;28;20555;-66
2021/06/18 03:59:35;;;;;;;12.37;11.37;;;30.10;99.90;;;;;;5051724;28;20441;-66
2021/06/18 04:02:04;;;;;;;11.53;10.53;;;30.70;99.90;;;;;;5069579;28;20430;-66
2021/06/18 04:04:36;;;;;;;11.77;10.70;;;31.20;99.90;;;;;;5071491;28;20456;-66
2021/06/18 04:07:07;;;;;;;12.63;11.30;;;31.20;99.90;;;;;;5073099;28;20431;-67
2021/06/18 04:09:37;;;;;;;11.83;10.83;;;31.60;99.90;;;;;;5075358;28;20428;-67
2021/06/18 04:12:07;;;;;;;12.00;11.00;;;31.90;99.90;;;;;;5074516;28;20422;-67
2021/06/18 04:14:36;;;;;;;10.70;9.90;;;32.30;99.90;;;;;;5072028;28;20418;-67
2021/06/18 04:17:05;;;;;;;10.63;9.80;;;32.50;99.90;;;;;;5074361;28;20429;-67
2021/06/18 04:19:36;;;;;;;11.67;10.77;;;32.40;99.90;;;;;;5071930;28;20422;-67
2021/06/18 04:22:06;;;;;;;11.10;10.00;;;32.40;99.90;;;;;;5074543;28;20438;-69
2021/06/18 04:24:35;;;;;;;11.07;10.27;;;32.90;99.90;;;;;;5054052;28;20434;-68
2021/06/18 04:27:04;;;;;;;11.67;10.57;;;33.30;99.90;;;;;;5075990;28;20434;-67
2021/06/18 04:29:32;;;;;;;10.67;9.77;;;33.60;99.90;;;;;;5065728;28;20437;-67
2021/06/18 04:32:00;;;;;;;11.40;10.40;;;33.80;99.90;;;;;;5070906;28;20438;-67
2021/06/18 04:34:28;;;;;;;12.30;11.17;;;34.30;99.90;;;;;;5071503;28;20434;-67
2021/06/18 04:36:58;;;;;;;10.23;9.37;;;34.20;99.90;;;;;;5073120;28;21200;-65
2021/06/18 04:39:26;;;;;;;10.70;10.00;;;34.50;99.90;;;;;;5071907;28;20854;-66
2021/06/18 04:41:54;;;;;;;11.57;10.23;;;34.40;99.90;;;;;;5071113;28;20924;-65
2021/06/18 04:44:22;;;;;;;14.60;10.17;;;34.30;99.90;;;;;;5069418;28;20430;-66
2021/06/18 04:46:51;;;;;;;12.93;11.57;;;34.80;99.90;;;;;;5069259;28;21239;-66
2021/06/18 04:49:19;;;;;;;11.17;10.27;;;34.80;99.90;;;;;;5070692;28;20419;-65
2021/06/18 04:51:47;;;;;;;11.20;10.30;;;35.40;99.90;;;;;;5070848;28;20441;-65
2021/06/18 04:54:17;;;;;;;10.90;10.00;;;35.90;99.90;;;;;;5071132;28;20433;-65
2021/06/18 04:56:45;;;;;;;10.87;10.07;;;36.40;99.90;;;;;;5071203;28;20512;-66
2021/06/18 04:59:13;;;;;;;11.07;10.27;;;36.50;99.90;;;;;;5071738;28;20423;-65
2021/06/18 05:01:41;;;;;;;10.77;9.87;;;36.70;99.90;;;;;;5071149;28;20504;-66
2021/06/18 05:04:09;;;;;;;10.90;10.10;;;36.40;99.90;;;;;;5070757;28;20924;-65
2021/06/18 05:06:37;;;;;;;10.80;9.90;;;36.30;99.90;;;;;;5068933;28;20418;-66
2021/06/18 05:09:06;;;;;;;11.60;10.60;;;37.00;99.90;;;;;;5070690;28;20418;-66
2021/06/18 05:11:36;;;;;;;13.10;10.40;;;37.00;99.90;;;;;;5070959;28;20470;-66
2021/06/18 05:14:04;;;;;;;10.83;10.00;;;37.40;99.90;;;;;;5070069;28;20441;-66
2021/06/18 05:16:32;;;;;;;10.10;9.30;;;37.80;99.90;;;;;;5052635;28;20458;-66
2021/06/18 05:19:00;;;;;;;9.10;8.40;;;38.20;99.90;;;;;;5070669;28;20758;-67
2021/06/18 05:21:28;;;;;;;9.80;8.90;;;38.30;99.90;;;;;;5051879;28;20572;-67
2021/06/18 05:23:56;;;;;;;9.80;8.90;;;38.40;99.90;;;;;;5052003;28;20426;-67
2021/06/18 05:26:25;;;;;;;9.83;9.07;;;37.90;99.90;;;;;;5068655;28;20422;-67
2021/06/18 05:28:54;;;;;;;10.70;9.63;;;37.30;99.90;;;;;;5070777;28;20425;-67
2021/06/18 05:31:23;;;;;;;10.03;9.23;;;37.60;99.90;;;;;;5070844;28;20529;-66
2021/06/18 05:33:51;;;;;;;8.50;7.77;;;37.90;99.90;;;;;;5052458;28;20426;-67
2021/06/18 05:36:20;;;;;;;11.83;10.83;;;38.10;99.90;;;;;;5070645;28;20450;-67
2021/06/18 05:38:52;;;;;;;15.57;10.50;;;37.00;99.90;;;;;;5070792;28;20609;-67
2021/06/18 05:41:20;;;;;;;11.33;10.33;;;34.60;99.90;;;;;;5070595;28;20533;-67
2021/06/18 05:43:48;;;;;;;11.53;10.53;;;31.90;99.90;;;;;;5069961;28;20784;-67
2021/06/18 05:46:18;;;;;;;11.23;10.23;;;30.10;99.90;;;;;;5070313;28;20422;-67
2021/06/18 05:48:46;;;;;;;13.73;10.60;;;28.90;99.90;;;;;;5069970;28;20480;-67
2021/06/18 05:51:14;;;;;;;11.10;10.20;;;28.20;99.90;;;;;;5069770;28;20504;-67
2021/06/18 05:53:43;;;;;;;10.37;9.53;;;27.70;99.90;;;;;;5069405;28;20755;-67
2021/06/18 05:56:11;;;;;;;9.63;8.93;;;27.40;99.90;;;;;;5069733;28;20454;-67
2021/06/18 05:58:42;;;;;;;10.13;9.33;;;27.20;99.90;;;;;;5070000;28;20446;-67
2021/06/18 06:01:10;;;;;;;9.50;8.70;;;27.10;99.90;;;;;;5069513;28;20450;-67
2021/06/18 06:03:59;;;;;;;10.20;9.20;;;27.00;99.90;;;;;;5047511;28;20838;-67
2021/06/18 06:06:28;;;;;;;9.37;8.43;;;27.00;99.90;;;;;;5051917;28;20984;-67
2021/06/18 06:08:56;;;;;;;10.73;8.50;;;27.00;99.90;;;;;;5069765;28;20422;-69
2021/06/18 06:11:26;;;;;;;12.40;7.80;;;27.20;99.90;;;;;;5069649;28;20445;-67
2021/06/18 06:13:59;;;;;;;6.80;6.30;;;27.20;99.90;;;;;;5068031;28;20868;-67
2021/06/18 06:16:29;;;;;;;9.13;8.20;;;27.20;99.90;;;;;;5051666;28;20469;-67
2021/06/18 06:18:58;;;;;;;8.30;7.50;;;27.30;99.90;;;;;;5069206;28;20499;-67
2021/06/18 06:21:27;;;;;;;7.77;7.17;;;27.30;99.90;;;;;;5067194;28;20454;-69
2021/06/18 06:23:56;;;;;;;8.00;7.30;;;27.40;99.90;;;;;;5065360;28;20436;-67
2021/06/18 06:26:24;;;;;;;9.60;7.57;;;27.40;99.90;;;;;;5067885;28;20423;-67
2021/06/18 06:28:52;;;;;;;8.50;7.37;;;27.50;99.90;;;;;;5050759;28;20433;-67
2021/06/18 06:31:20;;;;;;;7.80;7.10;;;27.60;99.90;;;;;;5069425;28;20446;-67
2021/06/18 06:33:49;;;;;;;7.43;6.73;;;27.70;99.90;;;;;;5067021;28;20913;-67
2021/06/18 06:36:18;;;;;;;6.47;5.93;;;27.70;99.90;;;;;;5069983;28;20441;-67
2021/06/18 06:38:46;;;;;;;7.37;6.77;;;27.80;99.90;;;;;;5069869;28;20432;-66
2021/06/18 06:41:15;;;;;;;7.07;6.57;;;28.00;99.90;;;;;;5070349;28;20788;-67
2021/06/18 06:43:43;;;;;;;7.53;6.83;;;28.10;99.90;;;;;;5069982;28;20429;-67
2021/06/18 06:46:11;;;;;;;9.20;6.43;;;28.20;99.90;;;;;;5071439;28;20521;-68
2021/06/18 06:48:39;;;;;;;6.57;5.83;;;28.40;99.90;;;;;;5069702;28;20418;-67
2021/06/18 06:51:07;;;;;;;5.90;5.40;;;28.50;99.90;;;;;;5069543;28;20887;-68
2021/06/18 06:53:37;;;;;;;6.53;6.03;;;28.60;99.90;;;;;;5069238;28;20426;-67
2021/06/18 06:56:05;;;;;;;6.67;6.07;;;28.70;99.90;;;;;;5069928;28;20425;-68
2021/06/18 06:58:33;;;;;;;8.67;7.00;;;28.80;99.90;;;;;;5069701;28;20465;-68
2021/06/18 07:01:02;;;;;;;7.60;6.73;;;28.90;99.90;;;;;;5069758;28;21236;-67
2021/06/18 07:03:30;;;;;;;12.43;6.37;;;29.00;99.90;;;;;;5051670;28;20434;-67
2021/06/18 07:05:58;;;;;;;6.80;6.20;;;29.00;99.90;;;;;;5067138;28;20426;-67
2021/06/18 07:08:26;;;;;;;6.77;6.17;;;29.10;99.90;;;;;;5069754;28;20426;-67
2021/06/18 07:10:55;;;;;;;5.90;5.40;;;29.20;99.90;;;;;;5069570;28;20804;-67
2021/06/18 07:13:24;;;;;;;5.73;5.23;;;29.30;99.90;;;;;;5068604;28;20426;-67
2021/06/18 07:15:53;;;;;;;6.17;5.67;;;29.30;99.90;;;;;;5066423;28;20429;-67
2021/06/18 07:18:22;;;;;;;6.63;6.03;;;29.30;99.90;;;;;;5066928;28;20488;-67
2021/06/18 07:20:51;;;;;;;7.40;6.80;;;29.40;99.90;;;;;;5069483;28;20532;-67
2021/06/18 07:23:19;;;;;;;6.07;5.57;;;29.50;99.90;;;;;;5070269;28;20933;-67
2021/06/18 07:25:47;;;;;;;6.10;5.27;;;29.50;99.90;;;;;;5073220;28;20755;-67
2021/06/18 07:28:17;;;;;;;6.43;5.87;;;29.60;99.90;;;;;;5073143;28;20917;-67
2021/06/18 07:30:46;;;;;;;6.17;5.60;;;29.60;99.90;;;;;;5072930;28;20442;-67
2021/06/18 07:33:14;;;;;;;5.53;5.03;;;29.60;99.90;;;;;;5068878;28;20796;-67
2021/06/18 07:35:42;;;;;;;6.00;5.40;;;29.70;99.90;;;;;;5072906;28;20418;-66
2021/06/18 07:38:10;;;;;;;7.07;6.37;;;29.70;99.90;;;;;;5073736;28;20676;-66
2021/06/18 07:40:39;;;;;;;5.13;4.70;;;29.70;99.90;;;;;;5053787;28;20850;-67
2021/06/18 07:43:07;;;;;;;5.67;5.10;;;29.80;99.90;;;;;;5053081;28;20430;-67
2021/06/18 07:45:37;;;;;;;5.83;5.07;;;29.80;99.90;;;;;;5073822;28;20920;-66
2021/06/18 07:48:09;;;;;;;5.80;5.20;;;30.00;99.90;;;;;;5073915;28;20437;-67
2021/06/18 07:50:40;;;;;;;5.50;4.77;;;30.10;99.90;;;;;;5073473;28;20434;-66
2021/06/18 07:53:08;;;;;;;5.47;5.00;;;30.30;99.90;;;;;;5073170;28;20422;-66
2021/06/18 07:55:36;;;;;;;8.00;7.13;;;30.20;99.90;;;;;;5073474;28;20469;-67
2021/06/18 07:58:05;;;;;;;5.57;4.97;;;30.20;99.90;;;;;;5055469;28;20931;-68
2021/06/18 08:00:33;;;;;;;5.47;4.90;;;30.20;99.90;;;;;;5073257;28;20736;-67
2021/06/18 08:03:03;;;;;;;5.20;4.80;;;30.20;99.90;;;;;;5073254;28;20426;-69
2021/06/18 08:05:31;;;;;;;5.03;4.30;;;30.40;99.90;;;;;;5055711;28;20737;-67
2021/06/18 08:07:59;;;;;;;4.13;3.83;;;30.60;99.90;;;;;;5055636;28;20533;-66
2021/06/18 08:10:47;;;;;;;5.20;4.70;;;30.60;99.90;;;;;;5073092;28;20446;-68
2021/06/18 08:13:16;;;;;;;5.20;4.57;;;30.70;99.90;;;;;;5073637;28;20422;-67
2021/06/18 08:15:44;;;;;;;5.13;4.73;;;30.60;99.90;;;;;;5055944;28;20492;-68
2021/06/18 08:18:14;;;;;;;8.20;4.80;;;30.50;99.90;;;;;;5055758;28;21010;-66
2021/06/18 08:20:43;;;;;;;4.53;4.13;;;30.50;99.90;;;;;;5055822;28;20454;-65
2021/06/18 08:23:11;;;;;;;5.90;5.27;;;30.60;99.90;;;;;;5055187;28;20465;-67
2021/06/18 08:25:40;;;;;;;5.00;4.60;;;30.60;99.90;;;;;;5073089;28;20422;-66
2021/06/18 08:28:09;;;;;;;5.27;4.77;;;30.80;99.90;;;;;;5073312;28;20430;-68
2021/06/18 08:30:37;;;;;;;5.00;4.60;;;30.90;99.90;;;;;;5073008;28;20434;-67
2021/06/18 08:33:05;;;;;;;4.80;4.40;;;31.00;99.90;;;;;;5072668;28;20437;-66
2021/06/18 08:35:35;;;;;;;5.27;4.70;;;31.10;99.90;;;;;;5072201;28;20452;-67
2021/06/18 08:38:04;;;;;;;5.50;5.00;;;31.20;99.90;;;;;;5072946;28;20469;-66
2021/06/18 08:40:34;;;;;;;4.70;4.30;;;31.20;99.90;;;;;;5072609;28;20545;-66
2021/06/18 08:43:04;;;;;;;4.10;3.80;;;31.20;99.90;;;;;;5072549;28;20430;-67
2021/06/18 08:45:33;;;;;;;3.93;3.50;;;31.20;99.90;;;;;;5072922;28;20787;-67
2021/06/18 08:48:01;;;;;;;4.97;4.57;;;31.20;99.90;;;;;;5072652;28;20932;-66
2021/06/18 08:50:30;;;;;;;4.23;3.90;;;31.30;99.90;;;;;;5072972;28;20438;-67
2021/06/18 08:53:03;;;;;;;4.47;4.07;;;31.40;99.90;;;;;;5072962;28;20866;-67
2021/06/18 08:55:32;;;;;;;4.23;3.90;;;31.50;99.90;;;;;;5072622;28;20419;-67
2021/06/18 08:58:04;;;;;;;5.83;4.87;;;31.50;99.90;;;;;;5073254;28;20457;-69
2021/06/18 09:00:33;;;;;;;4.87;4.47;;;31.70;99.90;;;;;;5073197;28;20848;-66
2021/06/18 09:03:38;;;;;;;4.70;4.30;;;31.80;99.90;;;;;;5073291;28;20446;-65
2021/06/18 09:06:34;;;;;;;4.17;3.87;;;31.90;99.90;;;;;;5072658;28;20440;-66
2021/06/18 09:09:21;;;;;;;4.37;3.97;;;32.00;99.90;;;;;;5073367;28;20511;-65
2021/06/18 09:11:51;;;;;;;3.50;3.20;;;32.00;99.90;;;;;;5073204;28;20449;-65
2021/06/18 09:14:26;;;;;;;8.13;4.17;;;32.10;99.90;;;;;;5072392;28;20446;-65
2021/06/18 09:17:10;;;;;;;5.10;4.70;;;32.00;99.90;;;;;;5073361;28;20452;-68
2021/06/18 09:19:42;;;;;;;4.00;3.67;;;32.00;99.90;;;;;;5072104;28;20465;-67
2021/06/18 09:22:12;;;;;;;4.70;4.33;;;32.00;99.90;;;;;;5086270;23;20486;-67
2021/06/18 09:24:44;;;;;;;4.13;3.83;;;31.90;99.90;;;;;;5060069;28;20419;-67
2021/06/18 09:27:13;;;;;;;5.20;4.63;;;31.80;99.90;;;;;;5052187;28;20427;-67
2021/06/18 09:29:42;;;;;;;6.93;4.50;;;31.80;99.90;;;;;;5051787;28;20855;-67
2021/06/18 09:32:12;;;;;;;4.60;4.20;;;31.90;99.90;;;;;;5051825;28;20427;-67
2021/06/18 09:34:59;;;;;;;5.10;4.60;;;32.00;99.90;;;;;;5052161;28;20420;-67
2021/06/18 09:37:32;;;;;;;5.30;4.80;;;32.20;99.90;;;;;;5052199;28;20868;-66
2021/06/18 09:40:17;;;;;;;5.00;3.83;;;32.30;99.90;;;;;;5051245;28;20475;-67
2021/06/18 09:42:57;;;;;;;6.37;4.53;;;32.40;99.90;;;;;;5051922;28;20426;-66
2021/06/18 09:45:27;;;;;;;4.47;4.07;;;32.30;99.90;;;;;;5052302;28;20425;-67
2021/06/18 09:48:08;;;;;;;4.77;4.37;;;32.30;99.90;;;;;;5051233;28;20435;-67
2021/06/18 09:50:38;;;;;;;3.90;3.60;;;32.40;99.90;;;;;;5052086;28;20444;-66
2021/06/18 09:53:20;;;;;;;3.87;3.57;;;32.40;99.90;;;;;;5051809;28;20447;-66
2021/06/18 09:56:01;;;;;;;5.10;4.60;;;32.40;99.90;;;;;;5051547;28;20510;-66
2021/06/18 09:58:34;;;;;;;5.20;3.97;;;32.30;99.90;;;;;;5051342;28;20460;-67
2021/06/18 10:01:19;;;;;;;4.50;4.10;;;32.30;99.90;;;;;;5051249;28;20498;-67
2021/06/18 10:04:07;;;;;;;3.97;3.67;;;32.40;99.90;;;;;;5050955;28;20515;-66
2021/06/18 10:06:37;;;;;;;5.47;4.70;;;32.60;99.90;;;;;;5051571;28;20441;-67
2021/06/18 10:09:07;;;;;;;4.60;4.20;;;32.60;99.90;;;;;;5051008;28;20901;-66
2021/06/18 10:11:40;;;;;;;5.03;4.53;;;32.60;99.90;;;;;;5051087;28;20446;-66
2021/06/18 10:14:08;;;;;;;5.27;4.13;;;32.70;99.90;;;;;;5050560;28;20440;-67
2021/06/18 10:16:36;;;;;;;5.13;4.70;;;32.70;99.90;;;;;;5051039;28;21002;-66
2021/06/18 10:19:04;;;;;;;5.30;4.80;;;32.60;99.90;;;;;;5050807;28;20470;-67
2021/06/18 10:21:35;;;;;;;5.50;5.10;;;32.60;99.90;;;;;;5050705;28;20453;-66
2021/06/18 10:24:06;;;;;;;5.53;4.73;;;32.60;99.90;;;;;;5051085;28;20496;-67
2021/06/18 10:26:36;;;;;;;4.63;4.10;;;32.60;99.90;;;;;;5032873;28;20459;-67
2021/06/18 10:29:04;;;;;;;3.67;3.37;;;32.70;99.90;;;;;;5050847;28;20427;-67
2021/06/18 10:31:35;;;;;;;5.10;4.70;;;32.90;99.90;;;;;;5050683;28;20454;-67
2021/06/18 10:34:06;;;;;;;4.83;4.43;;;33.00;99.90;;;;;;5050347;28;20425;-65
2021/06/18 10:36:34;;;;;;;5.10;4.70;;;33.10;99.90;;;;;;5050655;28;20941;-67
2021/06/18 10:39:12;;;;;;;5.10;4.70;;;33.40;99.90;;;;;;5050191;28;20467;-67
2021/06/18 10:41:49;;;;;;;4.13;3.83;;;33.50;99.90;;;;;;5032499;28;20823;-67
2021/06/18 10:44:47;;;;;;;4.20;3.77;;;33.60;99.90;;;;;;5032497;28;20434;-65
2021/06/18 10:47:56;;;;;;;5.20;4.80;;;33.60;99.90;;;;;;5051030;28;20450;-66
2021/06/18 10:50:46;;;;;;;5.40;4.33;;;33.50;99.90;;;;;;5051005;28;20456;-66
2021/06/18 10:53:22;;;;;;;4.20;3.80;;;33.50;99.90;;;;;;5050208;28;20424;-67
2021/06/18 10:55:54;;;;;;;4.93;4.53;;;33.50;99.90;;;;;;5032500;28;20434;-65
2021/06/18 10:58:23;;;;;;;4.47;4.10;;;33.50;99.90;;;;;;5050472;28;20969;-66
2021/06/18 11:00:52;;;;;;;4.07;3.77;;;33.60;99.90;;;;;;5049972;28;20465;-66
2021/06/18 11:03:53;;;;;;;5.00;4.50;;;33.40;99.90;;;;;;5049867;28;20422;-68
2021/06/18 11:06:46;;;;;;;4.43;4.13;;;33.60;99.90;;;;;;5050588;28;20832;-66
2021/06/18 11:09:39;;;;;;;4.67;3.47;;;33.80;99.90;;;;;;5050127;28;20422;-66
2021/06/18 11:12:49;;;;;;;4.57;4.13;;;33.90;99.90;;;;;;5049832;28;20430;-67
2021/06/18 11:15:38;;;;;;;4.80;4.20;;;33.90;99.90;;;;;;5050287;28;20937;-65
2021/06/18 11:18:15;;;;;;;4.40;3.67;;;33.90;99.90;;;;;;5050098;28;20419;-67
2021/06/18 11:21:01;;;;;;;4.97;4.07;;;33.80;99.90;;;;;;5050095;28;20477;-67
2021/06/18 11:23:34;;;;;;;5.17;4.40;;;33.60;99.90;;;;;;5049624;28;20444;-66
2021/06/18 11:26:08;;;;;;;4.47;4.17;;;33.60;99.90;;;;;;5050157;28;20470;-66
2021/06/18 11:28:39;;;;;;;4.50;4.10;;;33.60;99.90;;;;;;5050197;28;20407;-66
2021/06/18 11:31:12;;;;;;;4.60;4.30;;;33.80;99.90;;;;;;5050099;28;21034;-66
2021/06/18 11:33:46;;;;;;;3.93;3.57;;;33.90;99.90;;;;;;5049567;28;20514;-66
2021/06/18 11:36:43;;;;;;;5.90;4.00;;;33.90;99.90;;;;;;5050027;28;20426;-65
2021/06/18 11:39:30;;;;;;;4.10;3.80;;;33.70;99.90;;;;;;5049083;28;20481;-67
2021/06/18 11:42:05;;;;;;;5.07;4.13;;;33.80;99.90;;;;;;5049831;28;20422;-66
2021/06/18 11:44:34;;;;;;;6.83;4.50;;;34.10;99.90;;;;;;5050174;28;20516;-65
2021/06/18 11:47:04;;;;;;;4.60;4.20;;;34.30;99.90;;;;;;5049121;28;20427;-66
2021/06/18 11:49:34;;;;;;;4.43;4.03;;;34.40;99.90;;;;;;5048689;28;20427;-65
2021/06/18 11:52:06;;;;;;;4.00;3.60;;;34.50;99.90;;;;;;5048122;28;20425;-67
2021/06/18 11:54:36;;;;;;;4.97;4.57;;;34.30;99.90;;;;;;5048347;28;20427;-65
2021/06/18 11:57:06;;;;;;;4.20;3.90;;;34.10;99.90;;;;;;5049714;28;20446;-66
2021/06/18 11:59:37;;;;;;;6.73;4.40;;;34.20;99.90;;;;;;5053307;28;20466;-65
2021/06/18 12:02:20;;;;;;;4.30;3.90;;;34.30;99.90;;;;;;5049000;28;20422;-66
2021/06/18 12:05:10;;;;;;;4.17;3.87;;;34.50;99.90;;;;;;5050540;28;20439;-67
2021/06/18 12:07:40;;;;;;;5.40;4.73;;;34.70;99.90;;;;;;5048689;28;20423;-68
2021/06/18 12:10:20;;;;;;;4.57;4.13;;;34.80;99.90;;;;;;5048464;28;20445;-67
2021/06/18 12:12:49;;;;;;;4.50;4.10;;;34.40;99.90;;;;;;5056610;28;20418;-66
2021/06/18 12:15:22;;;;;;;4.70;4.30;;;34.30;99.90;;;;;;5072706;28;20433;-68
2021/06/18 12:17:55;;;;;;;4.67;4.20;;;34.20;99.90;;;;;;5072826;28;20419;-68
2021/06/18 12:20:35;;;;;;;4.13;3.83;;;34.20;99.90;;;;;;5071986;28;20481;-67
2021/06/18 12:23:05;;;;;;;4.90;4.60;;;34.10;99.90;;;;;;5071942;28;20533;-68
2021/06/18 12:25:33;;;;;;;4.97;4.57;;;34.10;99.90;;;;;;5072722;28;20426;-67
2021/06/18 12:28:04;;;;;;;5.50;4.90;;;34.30;99.90;;;;;;5072459;28;20426;-67
2021/06/18 12:30:34;;;;;;;5.67;5.17;;;34.30;99.90;;;;;;5067378;28;20501;-67
2021/06/18 12:33:07;;;;;;;4.57;4.00;;;34.30;99.90;;;;;;5051771;28;20998;-67
2021/06/18 12:35:40;;;;;;;4.70;4.40;;;34.10;99.90;;;;;;5052508;28;20429;-67
2021/06/18 12:38:11;;;;;;;4.43;4.03;;;34.10;99.90;;;;;;5052546;28;20640;-68
2021/06/18 12:40:40;;;;;;;5.67;5.17;;;34.10;99.90;;;;;;5034355;28;20478;-66
2021/06/18 12:43:10;;;;;;;5.13;4.63;;;34.30;99.90;;;;;;5075872;28;20471;-68
2021/06/18 12:45:47;;;;;;;5.33;4.93;;;34.40;99.90;;;;;;5092250;28;20441;-68
2021/06/18 12:48:20;;;;;;;7.00;5.43;;;34.50;99.90;;;;;;5092529;28;20421;-66
2021/06/18 12:50:50;;;;;;;5.00;4.43;;;34.60;99.90;;;;;;5092218;28;20495;-67
2021/06/18 12:53:29;;;;;;;8.33;5.10;;;34.60;99.90;;;;;;5091932;28;20449;-66
2021/06/18 12:56:11;;;;;;;5.23;4.83;;;34.50;99.90;;;;;;5091971;28;20425;-67
2021/06/18 12:58:39;;;;;;;5.30;4.10;;;34.50;99.90;;;;;;5092208;28;20430;-67
2021/06/18 13:01:09;;;;;;;3.97;3.57;;;34.60;99.90;;;;;;5091888;28;20699;-67